Time;durP1;ratioP1;P1;durP2;ratioP2;P2;SDS_P1;SDS_P2;PMS_P1;PMS_P2;Temp;Humidity;BMP_temperature;BMP_pressure;BME280_temperature;BME280_humidity;BME280_pressure;Samples;Min_cycle;Max_cycle;Signal;HPM_P1;HPM_P2
2022/06/26 00:01:01;;;;;;;6.50;4.38;;;19.20;99.90;;;;;;5039177;28;20176;-80
2022/06/26 00:03:28;;;;;;;7.47;4.70;;;19.10;99.90;;;;;;5053896;28;20175;-80
2022/06/26 00:05:54;;;;;;;8.30;5.03;;;19.00;99.90;;;;;;5054921;28;20668;-80
2022/06/26 00:08:21;;;;;;;5.18;4.43;;;18.90;99.90;;;;;;5054717;28;20569;-80
2022/06/26 00:10:48;;;;;;;7.45;5.10;;;18.90;99.90;;;;;;5054381;28;20183;-80
2022/06/26 00:13:14;;;;;;;6.93;4.72;;;18.90;99.90;;;;;;5039134;28;20175;-80
2022/06/26 00:15:40;;;;;;;5.53;4.88;;;18.80;99.90;;;;;;5054372;28;20203;-80
2022/06/26 00:18:06;;;;;;;5.43;4.60;;;18.80;99.90;;;;;;5054542;28;20234;-80
2022/06/26 00:20:32;;;;;;;5.97;4.68;;;18.80;99.90;;;;;;5039347;28;20179;-80
2022/06/26 00:22:58;;;;;;;5.97;4.50;;;18.70;99.90;;;;;;5039543;28;20663;-80
2022/06/26 00:25:24;;;;;;;5.57;4.80;;;18.70;99.90;;;;;;5054155;28;20191;-80
2022/06/26 00:27:50;;;;;;;7.93;5.07;;;18.70;99.90;;;;;;5054417;28;20182;-80
2022/06/26 00:30:16;;;;;;;8.35;4.53;;;18.70;99.90;;;;;;5054458;28;20663;-81
2022/06/26 00:32:42;;;;;;;6.38;4.25;;;18.70;99.90;;;;;;5037526;28;20182;-80
2022/06/26 00:35:08;;;;;;;9.40;5.43;;;18.60;99.90;;;;;;5038381;28;20229;-81
2022/06/26 00:37:34;;;;;;;7.88;5.45;;;18.30;99.90;;;;;;5054213;28;20211;-80
2022/06/26 00:40:00;;;;;;;7.60;5.75;;;18.00;99.90;;;;;;5053992;28;20187;-80
2022/06/26 00:42:26;;;;;;;6.97;5.60;;;17.90;99.90;;;;;;5053962;28;20732;-80
2022/06/26 00:44:55;;;;;;;8.23;6.10;;;17.90;99.90;;;;;;5036384;28;20720;-80
2022/06/26 00:47:22;;;;;;;6.00;5.10;;;17.90;99.90;;;;;;5053831;28;20249;-80
2022/06/26 00:49:48;;;;;;;9.00;5.90;;;18.10;99.90;;;;;;5055919;28;20210;-82
2022/06/26 00:52:16;;;;;;;9.07;5.90;;;18.30;99.90;;;;;;5040286;28;20767;-81
2022/06/26 00:54:42;;;;;;;9.07;7.20;;;18.50;99.90;;;;;;5055444;28;20187;-82
2022/06/26 00:57:08;;;;;;;7.97;5.88;;;18.70;99.90;;;;;;5054383;28;20211;-82
2022/06/26 00:59:35;;;;;;;13.88;8.13;;;18.80;99.90;;;;;;5054130;28;20214;-81
2022/06/26 01:02:01;;;;;;;11.38;9.20;;;18.90;99.90;;;;;;5054675;28;20640;-82
2022/06/26 01:04:26;;;;;;;15.45;8.77;;;18.90;99.90;;;;;;5054959;28;20266;-82
2022/06/26 01:06:53;;;;;;;14.05;9.90;;;18.90;99.90;;;;;;5055344;28;20278;-82
2022/06/26 01:09:18;;;;;;;13.50;9.70;;;18.90;99.90;;;;;;5039729;28;20171;-82
2022/06/26 01:11:45;;;;;;;15.07;10.60;;;18.90;99.90;;;;;;5055317;28;20202;-80
2022/06/26 01:14:11;;;;;;;15.35;11.20;;;18.90;99.90;;;;;;5054799;28;20175;-80
2022/06/26 01:16:39;;;;;;;13.10;10.77;;;18.90;99.90;;;;;;5038176;28;20199;-80
2022/06/26 01:19:06;;;;;;;13.23;9.73;;;18.90;99.90;;;;;;5039215;28;20206;-80
2022/06/26 01:21:33;;;;;;;14.25;8.80;;;18.90;99.90;;;;;;5055039;28;20179;-81
2022/06/26 01:23:59;;;;;;;14.20;10.82;;;18.90;99.90;;;;;;5054267;28;20645;-81
2022/06/26 01:26:26;;;;;;;11.57;10.38;;;18.90;99.90;;;;;;5054523;28;20228;-81
2022/06/26 01:28:52;;;;;;;10.55;9.45;;;18.90;99.90;;;;;;5054666;28;20183;-82
2022/06/26 01:31:19;;;;;;;12.63;10.23;;;18.90;99.90;;;;;;5054200;28;20179;-82
2022/06/26 01:33:47;;;;;;;10.40;9.05;;;18.90;99.90;;;;;;5054342;28;20183;-82
2022/06/26 01:36:13;;;;;;;11.15;8.65;;;18.90;99.90;;;;;;5039668;28;20195;-82
2022/06/26 01:38:38;;;;;;;11.48;9.38;;;18.90;99.90;;;;;;5039769;28;20210;-82
2022/06/26 01:41:04;;;;;;;12.52;9.38;;;18.90;99.90;;;;;;5056040;28;20171;-82
2022/06/26 01:43:33;;;;;;;11.10;8.35;;;18.90;99.90;;;;;;5053597;28;20215;-82
2022/06/26 01:46:00;;;;;;;11.57;8.88;;;18.90;99.90;;;;;;5037413;28;20214;-82
2022/06/26 01:48:26;;;;;;;10.40;8.85;;;18.90;99.90;;;;;;5037194;28;20210;-82
2022/06/26 01:50:54;;;;;;;13.13;8.90;;;19.00;99.90;;;;;;5052951;28;20210;-81
2022/06/26 01:53:21;;;;;;;10.60;9.50;;;18.90;99.90;;;;;;5052728;28;20183;-81
2022/06/26 01:55:46;;;;;;;9.32;8.32;;;18.90;99.90;;;;;;5052736;28;20687;-81
2022/06/26 01:58:13;;;;;;;8.20;7.30;;;18.80;99.90;;;;;;5052812;28;20222;-81
2022/06/26 02:00:41;;;;;;;10.10;7.93;;;18.80;99.90;;;;;;5053018;28;20205;-82
2022/06/26 02:03:08;;;;;;;8.88;7.50;;;18.80;99.90;;;;;;5053748;28;20512;-82
2022/06/26 02:05:34;;;;;;;8.10;7.20;;;18.80;99.90;;;;;;5038389;28;20652;-81
2022/06/26 02:08:01;;;;;;;10.50;7.88;;;18.80;99.90;;;;;;5038404;28;20179;-81
2022/06/26 02:15:58;;;;;;;8.80;6.60;;;18.80;99.90;;;;;;5038484;28;20213;-82
2022/06/26 02:18:25;;;;;;;9.90;7.30;;;18.70;99.90;;;;;;5054325;28;20205;-82
2022/06/26 02:20:51;;;;;;;9.10;7.05;;;18.70;99.90;;;;;;5037233;28;20185;-82
2022/06/26 02:23:17;;;;;;;9.15;6.20;;;18.70;99.90;;;;;;5038433;28;20171;-82
2022/06/26 02:25:43;;;;;;;7.43;5.93;;;18.70;99.90;;;;;;5054314;28;20201;-82
2022/06/26 02:28:09;;;;;;;8.15;6.47;;;18.60;99.90;;;;;;5038966;28;20258;-84
2022/06/26 02:30:35;;;;;;;7.25;5.95;;;18.60;99.90;;;;;;5041217;28;20175;-85
2022/06/26 02:33:01;;;;;;;7.25;6.47;;;18.60;99.90;;;;;;5056728;28;20187;-85
2022/06/26 02:35:28;;;;;;;11.15;7.18;;;18.50;99.90;;;;;;5056059;28;20285;-85
2022/06/26 02:37:54;;;;;;;8.52;6.30;;;18.40;99.90;;;;;;5054638;28;20199;-86
2022/06/26 02:40:22;;;;;;;8.73;7.30;;;18.40;99.90;;;;;;5053266;28;20175;-86
2022/06/26 02:42:47;;;;;;;10.82;7.03;;;18.40;99.90;;;;;;5053415;28;20179;-85
2022/06/26 02:45:13;;;;;;;8.25;6.20;;;18.40;99.90;;;;;;5054797;28;20175;-84
2022/06/26 02:47:39;;;;;;;7.88;6.78;;;18.40;99.90;;;;;;5057927;28;20603;-85
2022/06/26 02:50:06;;;;;;;8.73;6.68;;;18.40;99.90;;;;;;5058135;28;20614;-86
2022/06/26 02:52:32;;;;;;;7.70;6.05;;;18.30;99.90;;;;;;5042807;28;20195;-85
2022/06/26 02:54:58;;;;;;;6.65;5.82;;;18.30;99.90;;;;;;5039987;28;20180;-85
2022/06/26 02:57:24;;;;;;;7.47;6.57;;;18.30;99.90;;;;;;5054001;28;20300;-85
2022/06/26 02:59:50;;;;;;;9.40;7.75;;;18.30;99.90;;;;;;5055510;28;20343;-86
2022/06/26 03:02:15;;;;;;;9.15;7.40;;;18.20;99.90;;;;;;5055453;28;20608;-85
2022/06/26 03:04:42;;;;;;;9.73;8.65;;;18.20;99.90;;;;;;5038200;28;20175;-86
2022/06/26 03:07:08;;;;;;;11.20;8.90;;;18.10;99.90;;;;;;5055667;28;20206;-86
2022/06/26 03:09:34;;;;;;;11.40;10.18;;;18.00;99.90;;;;;;5041608;28;20210;-86
2022/06/26 03:12:00;;;;;;;10.13;9.00;;;18.00;99.90;;;;;;5057357;28;20250;-86
2022/06/26 03:14:25;;;;;;;11.88;9.32;;;18.00;99.90;;;;;;5056845;28;20680;-86
2022/06/26 03:16:51;;;;;;;14.40;7.60;;;18.10;99.90;;;;;;5056689;28;20205;-86
2022/06/26 03:19:17;;;;;;;11.50;9.93;;;18.10;99.90;;;;;;5056207;28;20220;-86
2022/06/26 03:21:43;;;;;;;11.15;7.97;;;18.10;99.90;;;;;;5056357;28;20202;-86
2022/06/26 03:24:09;;;;;;;9.40;8.27;;;18.10;99.90;;;;;;5056116;28;20668;-86
2022/06/26 03:26:37;;;;;;;9.48;8.48;;;18.10;99.90;;;;;;5056096;28;20619;-86
2022/06/26 03:29:06;;;;;;;9.68;8.25;;;18.10;99.90;;;;;;5056912;28;20198;-83
2022/06/26 03:31:33;;;;;;;12.82;9.10;;;18.00;99.90;;;;;;5056381;28;20244;-82
2022/06/26 03:33:59;;;;;;;9.00;8.10;;;18.00;99.90;;;;;;5057128;28;20601;-82
2022/06/26 03:36:26;;;;;;;9.95;8.07;;;17.90;99.90;;;;;;5055397;28;20202;-81
2022/06/26 03:38:52;;;;;;;9.32;8.32;;;17.90;99.90;;;;;;5039083;28;20202;-81
2022/06/26 03:41:18;;;;;;;12.98;7.95;;;17.90;99.90;;;;;;5038126;28;20175;-81
2022/06/26 03:43:44;;;;;;;9.85;8.20;;;17.90;99.90;;;;;;5039447;28;20249;-81
2022/06/26 03:46:11;;;;;;;10.23;8.60;;;17.90;99.90;;;;;;5054872;28;20199;-80
2022/06/26 03:48:37;;;;;;;9.52;8.52;;;17.80;99.90;;;;;;5055384;28;20679;-80
2022/06/26 03:51:03;;;;;;;9.75;8.50;;;17.80;99.90;;;;;;5038754;28;20187;-80
2022/06/26 03:53:30;;;;;;;9.98;8.85;;;17.80;99.90;;;;;;5039926;28;20681;-80
2022/06/26 03:55:56;;;;;;;11.43;9.82;;;17.80;99.90;;;;;;5055085;28;20203;-80
2022/06/26 03:58:22;;;;;;;10.18;9.13;;;17.70;99.90;;;;;;5055367;28;20210;-80
2022/06/26 04:00:49;;;;;;;10.98;9.73;;;17.70;99.90;;;;;;5040925;28;20175;-80
2022/06/26 04:03:15;;;;;;;10.93;8.95;;;17.60;99.90;;;;;;5055584;28;20182;-81
2022/06/26 04:05:41;;;;;;;10.88;9.25;;;17.70;99.90;;;;;;5056248;28;20288;-81
2022/06/26 04:08:08;;;;;;;12.05;9.07;;;17.70;99.90;;;;;;5055858;28;20183;-80
2022/06/26 04:10:34;;;;;;;10.70;9.60;;;17.70;99.90;;;;;;5040599;28;20175;-80
2022/06/26 04:13:06;;;;;;;11.35;10.15;;;17.70;99.90;;;;;;5057106;28;20193;-80
2022/06/26 04:15:33;;;;;;;13.85;10.48;;;17.70;99.90;;;;;;5056483;28;20668;-80
2022/06/26 04:18:00;;;;;;;10.73;9.48;;;17.70;99.90;;;;;;5054873;28;20230;-81
2022/06/26 04:20:26;;;;;;;12.30;11.00;;;17.60;99.90;;;;;;5055044;28;20277;-80
2022/06/26 04:23:04;;;;;;;13.45;11.48;;;17.60;99.90;;;;;;5055583;28;20211;-81
2022/06/26 04:25:32;;;;;;;14.40;11.10;;;17.60;99.90;;;;;;5055769;28;20688;-81
2022/06/26 04:27:58;;;;;;;14.80;11.02;;;17.60;99.90;;;;;;5038660;28;20241;-80
2022/06/26 04:30:24;;;;;;;17.33;11.73;;;17.70;99.90;;;;;;5038635;28;20239;-80
2022/06/26 04:32:50;;;;;;;15.13;11.43;;;17.80;99.90;;;;;;5054321;28;20179;-79
2022/06/26 04:35:16;;;;;;;15.05;11.00;;;17.80;99.90;;;;;;5052489;28;20187;-79
2022/06/26 04:37:42;;;;;;;11.77;9.70;;;17.90;99.90;;;;;;5052221;28;20703;-79
2022/06/26 04:40:11;;;;;;;10.82;8.95;;;18.00;99.90;;;;;;5052278;28;20184;-81
2022/06/26 04:42:39;;;;;;;11.48;10.18;;;18.10;99.90;;;;;;5052003;28;20640;-81
2022/06/26 04:45:05;;;;;;;12.15;10.18;;;18.10;99.90;;;;;;5036594;28;20176;-81
2022/06/26 04:47:31;;;;;;;12.25;9.80;;;18.20;99.90;;;;;;5052067;28;20289;-81
2022/06/26 04:49:57;;;;;;;14.70;10.82;;;18.30;99.90;;;;;;5051784;28;20667;-81
2022/06/26 04:52:23;;;;;;;13.68;10.45;;;18.40;99.90;;;;;;5052216;28;20175;-81
2022/06/26 04:54:49;;;;;;;12.32;10.77;;;18.40;99.90;;;;;;5035371;28;20179;-80
2022/06/26 04:57:14;;;;;;;14.35;11.07;;;18.50;99.90;;;;;;5051662;28;20187;-80
2022/06/26 04:59:40;;;;;;;13.82;11.20;;;18.50;99.90;;;;;;5035112;28;20168;-80
2022/06/26 05:02:07;;;;;;;12.85;11.38;;;18.50;99.90;;;;;;5036847;28;20194;-80
2022/06/26 05:04:33;;;;;;;15.02;12.02;;;18.50;99.90;;;;;;5050964;28;20183;-80
2022/06/26 05:06:58;;;;;;;15.63;12.10;;;18.50;99.90;;;;;;5034589;28;20191;-80
2022/06/26 05:09:25;;;;;;;15.10;11.32;;;18.40;99.90;;;;;;5051687;28;20554;-80
2022/06/26 05:11:51;;;;;;;13.27;10.65;;;18.40;99.90;;;;;;5051241;28;20651;-80
2022/06/26 05:14:18;;;;;;;11.68;9.73;;;18.30;99.90;;;;;;5051804;28;20190;-80
2022/06/26 05:16:44;;;;;;;11.07;8.93;;;18.30;99.90;;;;;;5051627;28;20195;-80
2022/06/26 05:19:10;;;;;;;9.77;7.18;;;18.30;99.90;;;;;;5052190;28;20203;-80
2022/06/26 05:21:36;;;;;;;8.18;6.75;;;18.20;99.90;;;;;;5051662;28;20252;-80
2022/06/26 05:24:02;;;;;;;9.45;6.68;;;18.30;99.90;;;;;;5051575;28;20643;-81
2022/06/26 05:26:28;;;;;;;10.15;6.88;;;18.20;99.90;;;;;;5051554;28;20202;-81
2022/06/26 05:28:54;;;;;;;10.50;6.90;;;18.30;99.90;;;;;;5054864;28;20251;-80
2022/06/26 05:31:20;;;;;;;9.25;8.20;;;18.50;99.90;;;;;;5053396;28;20640;-80
2022/06/26 05:33:46;;;;;;;10.23;9.23;;;18.60;99.90;;;;;;5037549;28;20256;-80
2022/06/26 05:36:12;;;;;;;9.15;7.35;;;18.80;99.90;;;;;;5052433;28;20290;-79
2022/06/26 05:38:39;;;;;;;10.43;8.25;;;18.80;99.90;;;;;;5050929;28;20314;-79
2022/06/26 05:41:05;;;;;;;10.18;8.48;;;19.00;99.90;;;;;;5050785;28;20207;-79
2022/06/26 05:43:31;;;;;;;8.65;6.70;;;19.10;99.90;;;;;;5035358;28;20179;-79
2022/06/26 05:45:57;;;;;;;8.77;6.50;;;19.20;99.90;;;;;;5034093;28;20198;-80
2022/06/26 05:48:26;;;;;;;8.75;7.13;;;19.30;99.90;;;;;;5034374;28;20229;-80
2022/06/26 05:50:52;;;;;;;7.15;5.97;;;19.30;99.90;;;;;;5035259;28;20523;-80
2022/06/26 05:53:18;;;;;;;7.65;6.05;;;19.30;99.90;;;;;;5050518;28;20636;-80
2022/06/26 05:55:45;;;;;;;6.78;5.60;;;19.50;99.90;;;;;;5034221;28;20214;-80
2022/06/26 05:58:11;;;;;;;9.70;5.78;;;19.60;99.90;;;;;;5050480;28;20211;-80
2022/06/26 06:00:39;;;;;;;7.97;5.90;;;19.80;99.90;;;;;;5050513;28;20186;-80
2022/06/26 06:03:06;;;;;;;6.35;4.85;;;19.90;99.90;;;;;;5035267;28;20243;-80
2022/06/26 06:05:32;;;;;;;5.70;4.72;;;19.80;99.90;;;;;;5052032;28;20262;-79
2022/06/26 06:08:00;;;;;;;6.65;4.78;;;19.80;99.90;;;;;;5053136;28;20211;-80
2022/06/26 06:10:27;;;;;;;7.50;4.30;;;19.70;99.90;;;;;;5036539;28;20179;-80
2022/06/26 06:12:53;;;;;;;5.50;4.00;;;19.70;99.90;;;;;;5052056;28;20183;-80
2022/06/26 06:15:20;;;;;;;6.18;4.55;;;19.70;99.90;;;;;;5051421;28;20763;-80
2022/06/26 06:17:48;;;;;;;5.82;4.25;;;19.60;99.90;;;;;;5034859;28;20214;-79
2022/06/26 06:20:19;;;;;;;4.80;4.30;;;19.70;99.90;;;;;;5053355;28;20167;-79
2022/06/26 06:22:53;;;;;;;6.28;4.90;;;19.70;99.90;;;;;;5054607;28;20301;-79
2022/06/26 06:25:20;;;;;;;7.80;4.03;;;19.60;99.90;;;;;;5037851;28;20162;-79
2022/06/26 06:27:46;;;;;;;7.35;5.25;;;19.60;99.90;;;;;;5036654;28;20191;-78
2022/06/26 06:30:12;;;;;;;8.02;4.90;;;19.70;99.90;;;;;;5051081;28;20187;-78
2022/06/26 06:32:40;;;;;;;5.15;4.45;;;19.80;99.90;;;;;;5050249;28;20266;-78
2022/06/26 06:35:07;;;;;;;4.70;4.20;;;19.90;99.90;;;;;;5050240;28;20179;-78
2022/06/26 06:37:33;;;;;;;5.80;4.40;;;20.00;99.90;;;;;;5050026;28;20210;-79
2022/06/26 06:40:00;;;;;;;7.25;4.47;;;20.10;99.90;;;;;;5050974;28;20171;-79
2022/06/26 06:42:27;;;;;;;5.15;4.60;;;20.20;99.90;;;;;;5040529;28;20195;-82
2022/06/26 06:44:54;;;;;;;5.85;4.15;;;20.20;99.90;;;;;;5043448;28;20278;-83
2022/06/26 06:47:20;;;;;;;4.90;4.40;;;20.20;99.90;;;;;;5039489;28;20202;-83
2022/06/26 06:49:46;;;;;;;5.65;4.05;;;20.20;99.90;;;;;;5053270;28;20183;-80
2022/06/26 06:52:11;;;;;;;7.28;5.00;;;20.20;99.90;;;;;;5051992;28;20253;-80
2022/06/26 06:54:37;;;;;;;7.65;5.30;;;20.10;99.90;;;;;;5035348;28;20191;-82
2022/06/26 06:57:04;;;;;;;5.43;4.80;;;20.00;99.90;;;;;;5051239;28;20257;-80
2022/06/26 06:59:30;;;;;;;6.47;5.15;;;20.00;99.90;;;;;;5051871;28;20198;-81
2022/06/26 07:01:55;;;;;;;7.15;5.75;;;19.90;99.90;;;;;;5034975;28;20210;-81
2022/06/26 07:04:21;;;;;;;7.75;6.07;;;19.90;99.90;;;;;;5050818;28;20171;-78
2022/06/26 07:06:48;;;;;;;8.75;6.20;;;19.80;99.90;;;;;;5051268;28;20238;-79
2022/06/26 07:09:13;;;;;;;9.52;6.70;;;19.60;99.90;;;;;;5051604;28;20175;-80
2022/06/26 07:11:39;;;;;;;8.73;6.82;;;19.50;99.90;;;;;;5051162;28;20183;-81
2022/06/26 07:14:06;;;;;;;7.75;6.20;;;19.40;99.90;;;;;;5052252;28;20179;-81
2022/06/26 07:16:31;;;;;;;11.43;7.13;;;19.30;99.90;;;;;;5052328;28;20310;-79
2022/06/26 07:18:57;;;;;;;10.77;6.93;;;19.20;99.90;;;;;;5051365;28;20661;-79
2022/06/26 07:21:23;;;;;;;9.40;6.90;;;19.20;99.90;;;;;;5051010;28;20172;-79
2022/06/26 07:23:49;;;;;;;8.95;6.63;;;19.20;99.90;;;;;;5050669;28;20229;-78
2022/06/26 07:26:15;;;;;;;6.93;6.13;;;19.10;99.90;;;;;;5034082;28;20626;-78
2022/06/26 07:28:41;;;;;;;10.45;5.68;;;19.10;99.90;;;;;;5035034;28;20179;-78
2022/06/26 07:31:07;;;;;;;7.85;5.97;;;19.20;99.90;;;;;;5035955;28;20206;-78
2022/06/26 07:36:16;;;;;;;6.97;5.25;;;19.20;99.90;;;;;;5035379;28;20213;-78
2022/06/26 07:38:42;;;;;;;5.70;5.10;;;19.20;99.90;;;;;;5032972;28;20289;-78
2022/06/26 07:41:08;;;;;;;6.55;4.85;;;19.20;99.90;;;;;;5034991;28;20181;-78
2022/06/26 07:43:34;;;;;;;8.07;4.65;;;19.20;99.90;;;;;;5052462;28;20245;-79
2022/06/26 07:46:00;;;;;;;11.02;5.07;;;19.20;99.90;;;;;;5042597;28;20622;-80
2022/06/26 07:48:26;;;;;;;6.72;4.80;;;19.20;99.90;;;;;;5060634;28;20528;-80
2022/06/26 07:50:53;;;;;;;4.50;4.10;;;19.20;99.90;;;;;;5057850;28;20724;-86
2022/06/26 07:53:23;;;;;;;5.25;3.72;;;19.20;99.90;;;;;;5055504;28;20201;-85
2022/06/26 07:55:50;;;;;;;5.30;4.22;;;19.30;99.90;;;;;;5056250;28;20199;-86
2022/06/26 07:58:16;;;;;;;4.68;4.00;;;19.50;99.90;;;;;;5039455;28;20226;-84
2022/06/26 08:00:42;;;;;;;7.82;3.67;;;19.60;99.90;;;;;;5040773;28;20175;-82
2022/06/26 08:03:10;;;;;;;5.15;4.20;;;19.60;99.90;;;;;;5057506;28;20590;-80
2022/06/26 08:05:37;;;;;;;6.05;4.13;;;19.70;99.90;;;;;;5039247;28;20667;-84
2022/06/26 08:08:04;;;;;;;7.63;3.90;;;19.70;99.90;;;;;;5058119;28;20183;-83
2022/06/26 08:10:30;;;;;;;5.40;4.18;;;19.70;99.90;;;;;;5057448;28;20713;-83
2022/06/26 08:12:56;;;;;;;7.75;3.83;;;19.70;99.90;;;;;;5045427;28;20187;-82
2022/06/26 08:15:23;;;;;;;6.25;4.20;;;19.70;99.90;;;;;;5045412;28;20178;-82
2022/06/26 08:17:49;;;;;;;3.40;3.00;;;19.70;99.90;;;;;;5060616;28;20270;-81
2022/06/26 08:20:14;;;;;;;4.15;3.30;;;19.90;99.90;;;;;;5056796;28;20206;-81
2022/06/26 08:22:40;;;;;;;3.35;2.92;;;20.20;99.90;;;;;;5040233;28;20225;-81
2022/06/26 08:25:07;;;;;;;5.70;2.70;;;20.40;99.90;;;;;;5055936;28;20183;-81
2022/06/26 08:27:33;;;;;;;5.82;3.15;;;20.70;99.90;;;;;;5055818;28;20616;-81
2022/06/26 08:29:59;;;;;;;4.25;2.92;;;20.90;99.90;;;;;;5055583;28;20179;-81
2022/06/26 08:32:24;;;;;;;5.18;2.83;;;20.90;99.90;;;;;;5039947;28;20171;-81
2022/06/26 08:34:51;;;;;;;2.95;2.67;;;21.00;99.90;;;;;;5038559;28;20176;-81
2022/06/26 08:37:17;;;;;;;3.67;3.08;;;21.10;99.90;;;;;;5055259;28;20613;-81
2022/06/26 08:39:43;;;;;;;3.55;2.65;;;21.10;99.90;;;;;;5040122;28;20171;-81
2022/06/26 08:42:09;;;;;;;2.92;2.33;;;21.40;99.90;;;;;;5055349;28;20229;-81
2022/06/26 08:44:42;;;;;;;3.58;2.10;;;21.30;99.90;;;;;;5055186;28;20662;-81
2022/06/26 08:47:09;;;;;;;2.47;2.28;;;21.40;99.90;;;;;;5055459;28;20195;-81
2022/06/26 08:49:36;;;;;;;2.22;2.03;;;21.50;99.90;;;;;;5039573;28;20294;-82
2022/06/26 08:52:03;;;;;;;2.58;2.10;;;21.40;99.90;;;;;;5054707;28;20175;-82
2022/06/26 08:54:31;;;;;;;3.40;2.30;;;21.30;99.90;;;;;;5052775;28;20175;-82
2022/06/26 08:56:58;;;;;;;2.72;2.13;;;21.30;99.90;;;;;;5053612;28;20226;-81
2022/06/26 08:59:24;;;;;;;2.35;1.90;;;21.30;99.90;;;;;;5053201;28;20211;-81
2022/06/26 09:01:50;;;;;;;2.97;2.05;;;21.40;99.90;;;;;;5053830;28;20178;-81
2022/06/26 09:04:16;;;;;;;3.03;2.30;;;21.60;99.90;;;;;;5053472;28;20652;-81
2022/06/26 09:06:43;;;;;;;3.33;1.90;;;21.70;99.90;;;;;;5054215;28;20684;-81
2022/06/26 09:09:18;;;;;;;3.00;2.00;;;21.80;99.90;;;;;;5053466;28;20266;-81
2022/06/26 09:11:45;;;;;;;2.40;2.20;;;21.90;99.90;;;;;;5053049;28;20182;-81
2022/06/26 09:14:14;;;;;;;2.42;2.22;;;22.10;99.90;;;;;;5054632;28;20175;-81
2022/06/26 09:16:45;;;;;;;5.88;2.00;;;22.40;99.90;;;;;;5038996;28;20203;-82
2022/06/26 09:19:18;;;;;;;2.47;2.05;;;22.60;99.90;;;;;;5039544;28;20565;-82
2022/06/26 09:21:44;;;;;;;2.55;2.10;;;22.50;99.90;;;;;;5038315;28;20176;-82
2022/06/26 09:24:13;;;;;;;2.83;1.85;;;22.50;99.90;;;;;;5039921;28;20221;-82
2022/06/26 09:26:43;;;;;;;2.00;1.80;;;22.20;99.90;;;;;;5054811;28;20634;-82
2022/06/26 09:29:09;;;;;;;2.53;1.50;;;22.00;99.90;;;;;;5039295;28;20682;-82
2022/06/26 09:31:37;;;;;;;2.95;1.70;;;22.00;99.90;;;;;;5039265;28;20188;-82
2022/06/26 09:34:04;;;;;;;2.60;1.70;;;21.80;99.90;;;;;;5038828;28;20186;-82
2022/06/26 09:36:30;;;;;;;1.90;1.80;;;21.70;99.90;;;;;;5055252;28;20580;-82
2022/06/26 09:38:56;;;;;;;2.60;1.77;;;21.70;99.90;;;;;;5054309;28;20211;-82
2022/06/26 09:41:30;;;;;;;4.75;1.77;;;21.70;99.90;;;;;;5055001;28;20171;-82
2022/06/26 09:43:57;;;;;;;3.17;2.28;;;21.90;99.90;;;;;;5037616;28;20596;-82
2022/06/26 09:46:31;;;;;;;2.28;2.00;;;21.80;99.90;;;;;;5039536;28;20187;-82
2022/06/26 09:48:58;;;;;;;6.70;2.38;;;21.80;99.90;;;;;;5054612;28;20170;-82
2022/06/26 09:51:25;;;;;;;5.28;2.38;;;21.70;99.90;;;;;;5038024;28;20175;-82
2022/06/26 09:53:51;;;;;;;4.90;2.80;;;21.70;99.90;;;;;;5053863;28;20270;-82
2022/06/26 09:56:17;;;;;;;5.78;3.33;;;21.50;99.90;;;;;;5036829;28;20734;-82
2022/06/26 09:58:43;;;;;;;3.92;3.00;;;21.30;99.90;;;;;;5052439;28;20321;-82
2022/06/26 10:06:43;;;;;;;3.42;2.88;;;21.00;99.90;;;;;;5036324;28;20697;-82
2022/06/26 10:09:10;;;;;;;4.75;2.92;;;20.90;99.90;;;;;;5051156;28;20294;-82
2022/06/26 10:11:39;;;;;;;3.10;2.80;;;20.90;99.90;;;;;;5035999;28;20178;-82
2022/06/26 10:14:19;;;;;;;5.95;2.80;;;20.80;99.90;;;;;;5052135;28;20183;-82
2022/06/26 10:17:06;;;;;;;3.78;2.53;;;20.70;99.90;;;;;;5052063;28;20221;-82
2022/06/26 10:19:41;;;;;;;4.15;2.50;;;20.70;99.90;;;;;;5036837;28;20170;-82
2022/06/26 10:22:07;;;;;;;3.65;2.53;;;20.80;99.90;;;;;;5037127;28;20159;-82
2022/06/26 10:24:33;;;;;;;3.67;2.28;;;20.70;99.90;;;;;;5052597;28;20234;-82
2022/06/26 10:27:01;;;;;;;2.67;2.15;;;20.60;99.90;;;;;;5052663;28;20199;-82
2022/06/26 10:29:38;;;;;;;2.83;2.00;;;20.70;99.90;;;;;;5036629;28;20563;-81
2022/06/26 10:32:07;;;;;;;2.47;2.00;;;20.70;99.90;;;;;;5053533;28;20236;-82
2022/06/26 10:34:33;;;;;;;2.50;1.70;;;20.70;99.90;;;;;;5052658;28;20179;-82
2022/06/26 10:37:10;;;;;;;2.58;1.90;;;20.90;99.90;;;;;;5052120;28;20204;-82
2022/06/26 10:39:39;;;;;;;3.38;1.60;;;21.10;99.90;;;;;;5051844;28;20186;-82
2022/06/26 10:45:27;;;;;;;2.50;1.90;;;21.10;99.90;;;;;;5036611;28;20514;-82
2022/06/26 10:47:55;;;;;;;2.65;1.70;;;21.30;99.90;;;;;;5028234;28;20723;-82
2022/06/26 10:50:27;;;;;;;1.88;1.65;;;21.40;99.90;;;;;;5036243;28;20664;-82
2022/06/26 10:52:54;;;;;;;1.88;1.63;;;21.70;99.90;;;;;;5036019;28;20167;-82
2022/06/26 10:55:20;;;;;;;4.40;1.80;;;22.00;99.90;;;;;;5051014;28;20189;-82
2022/06/26 10:57:46;;;;;;;3.10;1.60;;;22.20;99.90;;;;;;5034558;28;20707;-81
2022/06/26 11:00:13;;;;;;;2.38;1.90;;;22.40;99.90;;;;;;5035997;28;20172;-82
2022/06/26 11:02:41;;;;;;;2.40;1.60;;;22.20;99.90;;;;;;5035664;28;20218;-81
2022/06/26 11:05:09;;;;;;;1.27;1.25;;;22.30;99.90;;;;;;5050979;28;20175;-81
2022/06/26 11:07:46;;;;;;;1.88;1.67;;;22.60;99.90;;;;;;5050804;28;20612;-81
2022/06/26 11:10:17;;;;;;;3.20;1.65;;;22.70;99.90;;;;;;5036056;28;20541;-81
2022/06/26 11:12:45;;;;;;;1.40;1.30;;;23.00;99.90;;;;;;5051458;28;20694;-81
2022/06/26 11:15:26;;;;;;;1.67;1.42;;;23.40;99.90;;;;;;5051017;28;20724;-81
2022/06/26 11:18:03;;;;;;;5.47;1.80;;;24.00;99.90;;;;;;5050879;28;20671;-81
2022/06/26 11:20:49;;;;;;;1.15;1.10;;;24.10;99.90;;;;;;5051501;28;20539;-81
2022/06/26 11:23:27;;;;;;;3.17;1.70;;;24.00;99.90;;;;;;5051392;28;20167;-81
2022/06/26 11:26:02;;;;;;;3.33;1.92;;;23.90;99.90;;;;;;5053804;28;20198;-81
2022/06/26 11:28:41;;;;;;;3.58;1.80;;;23.80;99.90;;;;;;5053270;28;20205;-82
2022/06/26 11:31:13;;;;;;;1.63;1.52;;;23.80;99.90;;;;;;5054111;28;20210;-82
2022/06/26 11:33:40;;;;;;;2.22;1.70;;;23.80;99.90;;;;;;5038853;28;20171;-82
2022/06/26 11:36:07;;;;;;;1.83;1.50;;;23.90;99.90;;;;;;5054654;28;20206;-82
2022/06/26 11:38:34;;;;;;;4.13;2.20;;;24.30;99.90;;;;;;5038702;28;20281;-82
2022/06/26 11:41:02;;;;;;;1.88;1.50;;;24.60;99.90;;;;;;5054610;28;20159;-82
2022/06/26 11:43:28;;;;;;;3.25;1.63;;;24.80;99.90;;;;;;5054496;28;20179;-82
2022/06/26 11:45:56;;;;;;;3.33;1.80;;;25.00;99.90;;;;;;5039545;28;20265;-82
2022/06/26 11:48:22;;;;;;;3.47;1.50;;;24.60;99.90;;;;;;5054740;28;20186;-82
2022/06/26 11:50:53;;;;;;;2.35;1.75;;;24.40;99.90;;;;;;5053561;28;20194;-82
2022/06/26 11:53:28;;;;;;;4.78;1.80;;;24.20;99.90;;;;;;5038722;28;20178;-82
2022/06/26 11:55:56;;;;;;;3.58;1.67;;;24.00;99.90;;;;;;5055063;28;20202;-82
2022/06/26 11:58:24;;;;;;;1.70;1.60;;;23.60;99.90;;;;;;5054371;28;20211;-82
2022/06/26 12:01:10;;;;;;;2.03;1.45;;;23.30;99.90;;;;;;5038474;28;20254;-82
2022/06/26 12:03:42;;;;;;;1.50;1.40;;;23.00;99.90;;;;;;5054187;28;20171;-82
2022/06/26 12:06:08;;;;;;;3.50;1.75;;;23.00;99.90;;;;;;5054574;28;20203;-82
2022/06/26 12:08:34;;;;;;;2.70;1.60;;;23.00;99.90;;;;;;5039297;28;20295;-82
2022/06/26 12:11:01;;;;;;;2.72;1.50;;;23.10;99.90;;;;;;5055337;28;20179;-82
2022/06/26 12:13:33;;;;;;;1.80;1.60;;;23.00;99.90;;;;;;5054444;28;20186;-82
2022/06/26 12:16:10;;;;;;;3.22;1.75;;;22.90;99.90;;;;;;5038428;28;20727;-82
2022/06/26 12:18:37;;;;;;;2.65;1.77;;;23.00;99.90;;;;;;5053982;28;20203;-82
2022/06/26 12:21:03;;;;;;;2.28;1.70;;;22.80;99.90;;;;;;5037611;28;20171;-82
2022/06/26 12:23:39;;;;;;;3.90;1.77;;;22.60;99.90;;;;;;5054251;28;20229;-82
2022/06/26 12:26:11;;;;;;;4.20;1.85;;;22.70;99.90;;;;;;5053782;28;20591;-81
2022/06/26 12:28:52;;;;;;;1.90;1.70;;;22.60;99.90;;;;;;5053356;28;20191;-81
2022/06/26 12:31:20;;;;;;;2.42;1.80;;;22.60;99.90;;;;;;5052481;28;20198;-81
2022/06/26 12:33:47;;;;;;;2.65;1.65;;;23.00;99.90;;;;;;5037463;28;20258;-82
2022/06/26 12:36:14;;;;;;;1.50;1.40;;;23.50;99.90;;;;;;5053033;28;20203;-82
2022/06/26 12:38:41;;;;;;;1.67;1.55;;;24.20;99.90;;;;;;5037707;28;20199;-82
2022/06/26 12:41:16;;;;;;;2.13;1.60;;;24.60;99.90;;;;;;5052354;28;20179;-82
2022/06/26 12:43:52;;;;;;;2.83;1.90;;;24.50;99.90;;;;;;5053063;28;20261;-82
2022/06/26 12:46:19;;;;;;;4.10;1.80;;;24.20;99.90;;;;;;5037672;28;20186;-82
2022/06/26 12:48:45;;;;;;;1.90;1.60;;;23.70;99.90;;;;;;5052923;28;20191;-82
2022/06/26 12:51:11;;;;;;;2.83;1.80;;;23.30;99.90;;;;;;5052838;28;20185;-82
2022/06/26 12:53:38;;;;;;;4.50;1.85;;;23.00;99.90;;;;;;5052291;28;20187;-82
2022/06/26 12:56:05;;;;;;;2.17;1.90;;;22.80;99.90;;;;;;5037377;28;20206;-82
2022/06/26 12:58:30;;;;;;;2.75;1.45;;;22.60;99.90;;;;;;5036668;28;20790;-82
2022/06/26 13:00:56;;;;;;;3.15;1.98;;;22.40;99.90;;;;;;5052414;28;20281;-82